sensor_id;sensor_type;location;lat;lon;timestamp;temperature;humidity
5457;DHT22;2751;49.802;9.944;2023-02-18T00:02:14;11.40;99.90
5457;DHT22;2751;49.802;9.944;2023-02-18T00:04:40;11.40;99.90
5457;DHT22;2751;49.802;9.944;2023-02-18T00:07:07;11.40;99.90
5457;DHT22;2751;49.802;9.944;2023-02-18T00:09:34;11.40;99.90
5457;DHT22;2751;49.802;9.944;2023-02-18T00:12:03;11.30;99.90
5457;DHT22;2751;49.802;9.944;2023-02-18T00:14:29;11.30;1.00
5457;DHT22;2751;49.802;9.944;2023-02-18T00:16:57;11.60;1.00
5457;DHT22;2751;49.802;9.944;2023-02-18T00:19:23;11.50;99.90
5457;DHT22;2751;49.802;9.944;2023-02-18T00:21:50;11.30;1.00
5457;DHT22;2751;49.802;9.944;2023-02-18T00:24:17;11.30;1.00
5457;DHT22;2751;49.802;9.944;2023-02-18T00:26:44;11.30;1.00
5457;DHT22;2751;49.802;9.944;2023-02-18T00:29:13;11.30;99.90
5457;DHT22;2751;49.802;9.944;2023-02-18T00:31:40;11.40;99.90
5457;DHT22;2751;49.802;9.944;2023-02-18T00:34:07;11.40;99.90
5457;DHT22;2751;49.802;9.944;2023-02-18T00:36:34;11.40;99.90
5457;DHT22;2751;49.802;9.944;2023-02-18T00:39:02;11.50;99.90
5457;DHT22;2751;49.802;9.944;2023-02-18T00:41:31;11.50;99.90
5457;DHT22;2751;49.802;9.944;2023-02-18T00:43:58;11.50;96.10
5457;DHT22;2751;49.802;9.944;2023-02-18T00:46:27;11.50;66.10
5457;DHT22;2751;49.802;9.944;2023-02-18T00:48:54;11.50;1.00
5457;DHT22;2751;49.802;9.944;2023-02-18T00:51:22;11.50;1.00
5457;DHT22;2751;49.802;9.944;2023-02-18T00:53:52;11.60;1.00
5457;DHT22;2751;49.802;9.944;2023-02-18T00:56:19;11.60;1.00
5457;DHT22;2751;49.802;9.944;2023-02-18T00:58:46;11.70;1.00
5457;DHT22;2751;49.802;9.944;2023-02-18T01:01:14;11.90;1.00
5457;DHT22;2751;49.802;9.944;2023-02-18T01:03:43;11.70;99.90
5457;DHT22;2751;49.802;9.944;2023-02-18T01:06:10;11.90;99.90
5457;DHT22;2751;49.802;9.944;2023-02-18T01:08:38;11.60;1.00
5457;DHT22;2751;49.802;9.944;2023-02-18T01:11:06;11.60;99.90
5457;DHT22;2751;49.802;9.944;2023-02-18T01:13:34;11.50;99.90
5457;DHT22;2751;49.802;9.944;2023-02-18T01:16:04;11.80;1.00
5457;DHT22;2751;49.802;9.944;2023-02-18T01:18:31;11.40;1.00
5457;DHT22;2751;49.802;9.944;2023-02-18T01:20:59;11.40;1.00
5457;DHT22;2751;49.802;9.944;2023-02-18T01:23:26;11.30;1.00
5457;DHT22;2751;49.802;9.944;2023-02-18T01:25:53;11.30;1.00
5457;DHT22;2751;49.802;9.944;2023-02-18T01:28:20;11.30;1.00
5457;DHT22;2751;49.802;9.944;2023-02-18T01:30:49;11.50;1.00
5457;DHT22;2751;49.802;9.944;2023-02-18T01:33:17;11.20;1.00
5457;DHT22;2751;49.802;9.944;2023-02-18T01:35:45;11.20;1.00
5457;DHT22;2751;49.802;9.944;2023-02-18T01:38:13;11.20;1.00
5457;DHT22;2751;49.802;9.944;2023-02-18T01:40:46;11.10;12.90
5457;DHT22;2751;49.802;9.944;2023-02-18T01:43:14;11.00;43.20
5457;DHT22;2751;49.802;9.944;2023-02-18T01:45:58;11.00;75.50
5457;DHT22;2751;49.802;9.944;2023-02-18T01:48:29;11.00;82.40
5457;DHT22;2751;49.802;9.944;2023-02-18T01:51:00;11.00;92.00
5457;DHT22;2751;49.802;9.944;2023-02-18T01:53:35;11.00;98.60
5457;DHT22;2751;49.802;9.944;2023-02-18T01:56:05;10.90;99.90
5457;DHT22;2751;49.802;9.944;2023-02-18T01:58:33;11.00;99.90
5457;DHT22;2751;49.802;9.944;2023-02-18T02:01:01;11.00;99.90
5457;DHT22;2751;49.802;9.944;2023-02-18T02:03:28;11.10;99.90
5457;DHT22;2751;49.802;9.944;2023-02-18T02:05:54;11.00;99.90
5457;DHT22;2751;49.802;9.944;2023-02-18T02:08:21;10.90;99.90
5457;DHT22;2751;49.802;9.944;2023-02-18T02:11:09;11.00;99.90
5457;DHT22;2751;49.802;9.944;2023-02-18T02:13:49;10.90;99.90
5457;DHT22;2751;49.802;9.944;2023-02-18T02:16:23;10.90;99.90
5457;DHT22;2751;49.802;9.944;2023-02-18T02:18:59;11.20;99.90
5457;DHT22;2751;49.802;9.944;2023-02-18T02:22:16;10.90;99.90
5457;DHT22;2751;49.802;9.944;2023-02-18T02:24:56;10.90;99.90
5457;DHT22;2751;49.802;9.944;2023-02-18T02:27:34;11.00;99.90
5457;DHT22;2751;49.802;9.944;2023-02-18T02:30:43;10.90;99.90
5457;DHT22;2751;49.802;9.944;2023-02-18T02:33:37;10.90;99.90
5457;DHT22;2751;49.802;9.944;2023-02-18T02:36:13;10.90;99.90
5457;DHT22;2751;49.802;9.944;2023-02-18T02:38:51;10.90;99.90
5457;DHT22;2751;49.802;9.944;2023-02-18T02:41:30;10.90;99.90
5457;DHT22;2751;49.802;9.944;2023-02-18T02:44:05;10.90;99.90
5457;DHT22;2751;49.802;9.944;2023-02-18T02:46:37;10.90;91.90
5457;DHT22;2751;49.802;9.944;2023-02-18T02:49:11;10.90;63.90
5457;DHT22;2751;49.802;9.944;2023-02-18T02:51:45;11.30;24.10
5457;DHT22;2751;49.802;9.944;2023-02-18T02:54:16;10.90;1.00
5457;DHT22;2751;49.802;9.944;2023-02-18T02:56:43;11.20;1.00
5457;DHT22;2751;49.802;9.944;2023-02-18T02:59:12;11.00;1.00
5457;DHT22;2751;49.802;9.944;2023-02-18T03:01:50;11.00;1.00
5457;DHT22;2751;49.802;9.944;2023-02-18T03:04:39;11.00;1.00
5457;DHT22;2751;49.802;9.944;2023-02-18T03:07:39;11.00;1.00
5457;DHT22;2751;49.802;9.944;2023-02-18T03:10:22;11.00;1.00
5457;DHT22;2751;49.802;9.944;2023-02-18T03:12:57;11.00;1.00
5457;DHT22;2751;49.802;9.944;2023-02-18T03:15:32;11.00;1.00
5457;DHT22;2751;49.802;9.944;2023-02-18T03:18:06;11.00;1.00
5457;DHT22;2751;49.802;9.944;2023-02-18T03:20:36;11.40;1.00
5457;DHT22;2751;49.802;9.944;2023-02-18T03:23:10;11.00;1.00
5457;DHT22;2751;49.802;9.944;2023-02-18T03:25:39;11.00;1.00
5457;DHT22;2751;49.802;9.944;2023-02-18T03:28:09;11.10;1.00
5457;DHT22;2751;49.802;9.944;2023-02-18T03:30:41;11.00;1.00
5457;DHT22;2751;49.802;9.944;2023-02-18T03:33:12;11.00;1.00
5457;DHT22;2751;49.802;9.944;2023-02-18T03:35:41;11.00;1.00
5457;DHT22;2751;49.802;9.944;2023-02-18T03:38:14;11.00;1.00
5457;DHT22;2751;49.802;9.944;2023-02-18T03:40:44;10.90;1.00
5457;DHT22;2751;49.802;9.944;2023-02-18T03:43:11;10.90;1.00
5457;DHT22;2751;49.802;9.944;2023-02-18T03:45:38;10.90;1.00
5457;DHT22;2751;49.802;9.944;2023-02-18T03:48:05;10.90;1.00
5457;DHT22;2751;49.802;9.944;2023-02-18T03:50:32;10.90;1.00
5457;DHT22;2751;49.802;9.944;2023-02-18T03:52:59;10.90;1.00
5457;DHT22;2751;49.802;9.944;2023-02-18T03:55:28;10.80;1.00
5457;DHT22;2751;49.802;9.944;2023-02-18T03:57:54;10.80;1.00
5457;DHT22;2751;49.802;9.944;2023-02-18T04:00:22;10.80;1.00
5457;DHT22;2751;49.802;9.944;2023-02-18T04:02:49;10.80;1.00
5457;DHT22;2751;49.802;9.944;2023-02-18T04:05:16;10.80;1.00
5457;DHT22;2751;49.802;9.944;2023-02-18T04:07:42;10.70;1.00
5457;DHT22;2751;49.802;9.944;2023-02-18T04:10:10;10.70;1.00
5457;DHT22;2751;49.802;9.944;2023-02-18T04:12:38;10.80;1.00
5457;DHT22;2751;49.802;9.944;2023-02-18T04:15:06;10.80;1.00
5457;DHT22;2751;49.802;9.944;2023-02-18T04:17:33;10.80;1.00
5457;DHT22;2751;49.802;9.944;2023-02-18T04:20:00;10.80;1.00
5457;DHT22;2751;49.802;9.944;2023-02-18T04:22:28;10.80;1.00
5457;DHT22;2751;49.802;9.944;2023-02-18T04:24:55;10.70;8.50
5457;DHT22;2751;49.802;9.944;2023-02-18T04:27:21;10.70;37.70
5457;DHT22;2751;49.802;9.944;2023-02-18T04:29:51;10.70;68.00
5457;DHT22;2751;49.802;9.944;2023-02-18T04:32:17;10.30;90.60
5457;DHT22;2751;49.802;9.944;2023-02-18T04:34:44;10.60;99.90
5457;DHT22;2751;49.802;9.944;2023-02-18T04:37:11;10.60;99.90
5457;DHT22;2751;49.802;9.944;2023-02-18T04:39:38;10.60;99.90
5457;DHT22;2751;49.802;9.944;2023-02-18T04:42:05;10.60;99.90
5457;DHT22;2751;49.802;9.944;2023-02-18T04:44:34;10.60;99.90
5457;DHT22;2751;49.802;9.944;2023-02-18T04:47:03;10.60;99.90
5457;DHT22;2751;49.802;9.944;2023-02-18T04:49:31;10.60;99.90
5457;DHT22;2751;49.802;9.944;2023-02-18T04:51:58;10.60;99.90
5457;DHT22;2751;49.802;9.944;2023-02-18T04:54:24;10.60;99.90
5457;DHT22;2751;49.802;9.944;2023-02-18T04:56:51;10.60;99.90
5457;DHT22;2751;49.802;9.944;2023-02-18T04:59:18;10.60;99.90
5457;DHT22;2751;49.802;9.944;2023-02-18T05:01:45;10.60;99.90
5457;DHT22;2751;49.802;9.944;2023-02-18T05:04:13;11.10;99.90
5457;DHT22;2751;49.802;9.944;2023-02-18T05:06:41;10.60;99.90
5457;DHT22;2751;49.802;9.944;2023-02-18T05:09:09;10.60;99.90
5457;DHT22;2751;49.802;9.944;2023-02-18T05:11:36;10.60;99.90
5457;DHT22;2751;49.802;9.944;2023-02-18T05:14:02;10.60;99.90
5457;DHT22;2751;49.802;9.944;2023-02-18T05:16:29;10.60;99.90
5457;DHT22;2751;49.802;9.944;2023-02-18T05:18:56;10.60;99.90
5457;DHT22;2751;49.802;9.944;2023-02-18T05:21:24;10.60;99.90
5457;DHT22;2751;49.802;9.944;2023-02-18T05:23:51;10.60;99.90
5457;DHT22;2751;49.802;9.944;2023-02-18T05:26:18;10.60;99.90
5457;DHT22;2751;49.802;9.944;2023-02-18T05:28:45;10.60;99.90
5457;DHT22;2751;49.802;9.944;2023-02-18T05:31:12;10.60;99.90
5457;DHT22;2751;49.802;9.944;2023-02-18T05:33:39;10.60;99.90
5457;DHT22;2751;49.802;9.944;2023-02-18T05:36:07;10.60;99.90
5457;DHT22;2751;49.802;9.944;2023-02-18T05:38:35;10.60;99.90
5457;DHT22;2751;49.802;9.944;2023-02-18T05:41:02;10.50;99.90
5457;DHT22;2751;49.802;9.944;2023-02-18T05:43:29;10.50;99.90
5457;DHT22;2751;49.802;9.944;2023-02-18T05:46:16;10.60;99.90
5457;DHT22;2751;49.802;9.944;2023-02-18T05:48:42;10.70;91.90
5457;DHT22;2751;49.802;9.944;2023-02-18T05:51:09;10.60;38.80
5457;DHT22;2751;49.802;9.944;2023-02-18T05:53:37;10.60;22.40
5457;DHT22;2751;49.802;9.944;2023-02-18T05:56:05;11.00;1.00
5457;DHT22;2751;49.802;9.944;2023-02-18T05:58:32;10.70;1.00
5457;DHT22;2751;49.802;9.944;2023-02-18T06:00:59;10.90;1.00
5457;DHT22;2751;49.802;9.944;2023-02-18T06:03:26;10.70;1.00
5457;DHT22;2751;49.802;9.944;2023-02-18T06:05:53;10.70;1.00
5457;DHT22;2751;49.802;9.944;2023-02-18T06:08:20;10.70;1.00
5457;DHT22;2751;49.802;9.944;2023-02-18T06:10:48;10.70;1.00
5457;DHT22;2751;49.802;9.944;2023-02-18T06:13:15;10.70;1.00
5457;DHT22;2751;49.802;9.944;2023-02-18T06:15:43;10.60;1.00
5457;DHT22;2751;49.802;9.944;2023-02-18T06:18:09;10.60;1.00
5457;DHT22;2751;49.802;9.944;2023-02-18T06:20:38;10.60;1.00
5457;DHT22;2751;49.802;9.944;2023-02-18T06:23:05;10.60;1.00
5457;DHT22;2751;49.802;9.944;2023-02-18T06:25:32;10.60;1.00
5457;DHT22;2751;49.802;9.944;2023-02-18T06:28:00;10.60;1.00
5457;DHT22;2751;49.802;9.944;2023-02-18T06:30:27;10.60;1.00
5457;DHT22;2751;49.802;9.944;2023-02-18T06:32:54;10.70;1.00
5457;DHT22;2751;49.802;9.944;2023-02-18T06:35:21;10.70;1.00
5457;DHT22;2751;49.802;9.944;2023-02-18T06:37:47;11.00;1.00
5457;DHT22;2751;49.802;9.944;2023-02-18T06:40:14;10.80;99.90
5457;DHT22;2751;49.802;9.944;2023-02-18T06:42:42;10.80;99.90
5457;DHT22;2751;49.802;9.944;2023-02-18T06:45:11;10.90;99.90
5457;DHT22;2751;49.802;9.944;2023-02-18T06:47:38;10.90;52.10
5457;DHT22;2751;49.802;9.944;2023-02-18T06:50:06;10.90;1.00
5457;DHT22;2751;49.802;9.944;2023-02-18T06:52:33;10.90;1.00
5457;DHT22;2751;49.802;9.944;2023-02-18T06:55:00;11.00;1.00
5457;DHT22;2751;49.802;9.944;2023-02-18T06:57:27;11.30;99.90
5457;DHT22;2751;49.802;9.944;2023-02-18T06:59:53;11.00;99.90
5457;DHT22;2751;49.802;9.944;2023-02-18T07:02:22;11.20;1.00
5457;DHT22;2751;49.802;9.944;2023-02-18T07:04:49;11.40;1.00
5457;DHT22;2751;49.802;9.944;2023-02-18T07:07:15;11.10;1.00
5457;DHT22;2751;49.802;9.944;2023-02-18T07:09:42;11.20;1.00
5457;DHT22;2751;49.802;9.944;2023-02-18T07:12:09;11.20;1.00
5457;DHT22;2751;49.802;9.944;2023-02-18T07:14:36;11.20;99.90
5457;DHT22;2751;49.802;9.944;2023-02-18T07:17:03;11.20;1.00
5457;DHT22;2751;49.802;9.944;2023-02-18T07:19:31;11.30;19.10
5457;DHT22;2751;49.802;9.944;2023-02-18T07:21:58;11.60;1.00
5457;DHT22;2751;49.802;9.944;2023-02-18T07:24:26;11.40;1.00
5457;DHT22;2751;49.802;9.944;2023-02-18T07:26:52;11.70;99.90
5457;DHT22;2751;49.802;9.944;2023-02-18T07:29:19;11.90;99.90
5457;DHT22;2751;49.802;9.944;2023-02-18T07:31:46;11.60;99.90
5457;DHT22;2751;49.802;9.944;2023-02-18T07:34:13;11.50;99.90
5457;DHT22;2751;49.802;9.944;2023-02-18T07:36:41;11.50;99.90
5457;DHT22;2751;49.802;9.944;2023-02-18T07:39:08;11.80;99.90
5457;DHT22;2751;49.802;9.944;2023-02-18T07:41:37;11.50;99.90
5457;DHT22;2751;49.802;9.944;2023-02-18T07:44:04;11.60;99.90
5457;DHT22;2751;49.802;9.944;2023-02-18T07:46:31;11.50;99.90
5457;DHT22;2751;49.802;9.944;2023-02-18T07:48:58;11.50;99.90
5457;DHT22;2751;49.802;9.944;2023-02-18T07:51:24;11.70;99.90
5457;DHT22;2751;49.802;9.944;2023-02-18T07:53:53;11.80;99.90
5457;DHT22;2751;49.802;9.944;2023-02-18T07:56:20;11.70;99.90
5457;DHT22;2751;49.802;9.944;2023-02-18T07:58:47;11.80;99.90
5457;DHT22;2751;49.802;9.944;2023-02-18T08:01:14;12.00;99.90
5457;DHT22;2751;49.802;9.944;2023-02-18T08:03:42;12.00;99.90
5457;DHT22;2751;49.802;9.944;2023-02-18T08:06:19;11.90;99.90
5457;DHT22;2751;49.802;9.944;2023-02-18T08:08:46;12.20;99.90
5457;DHT22;2751;49.802;9.944;2023-02-18T08:11:14;11.90;99.90
5457;DHT22;2751;49.802;9.944;2023-02-18T08:13:41;11.90;99.90
5457;DHT22;2751;49.802;9.944;2023-02-18T08:16:08;11.90;99.90
5457;DHT22;2751;49.802;9.944;2023-02-18T08:18:35;12.00;99.90
5457;DHT22;2751;49.802;9.944;2023-02-18T08:21:02;12.20;99.90
5457;DHT22;2751;49.802;9.944;2023-02-18T08:23:29;12.30;99.90
5457;DHT22;2751;49.802;9.944;2023-02-18T08:25:56;12.50;99.90
5457;DHT22;2751;49.802;9.944;2023-02-18T08:28:24;13.20;99.90
5457;DHT22;2751;49.802;9.944;2023-02-18T08:30:53;13.60;99.90
5457;DHT22;2751;49.802;9.944;2023-02-18T08:33:23;13.60;99.90
5457;DHT22;2751;49.802;9.944;2023-02-18T08:35:52;13.60;99.90
5457;DHT22;2751;49.802;9.944;2023-02-18T08:38:21;13.50;99.90
5457;DHT22;2751;49.802;9.944;2023-02-18T08:40:48;13.20;99.90
5457;DHT22;2751;49.802;9.944;2023-02-18T08:43:17;12.90;99.90
5457;DHT22;2751;49.802;9.944;2023-02-18T08:45:45;12.70;99.90
5457;DHT22;2751;49.802;9.944;2023-02-18T08:48:12;12.70;99.90
5457;DHT22;2751;49.802;9.944;2023-02-18T08:50:42;12.50;99.90
5457;DHT22;2751;49.802;9.944;2023-02-18T08:53:09;12.70;99.90
5457;DHT22;2751;49.802;9.944;2023-02-18T08:55:39;12.40;99.90
5457;DHT22;2751;49.802;9.944;2023-02-18T08:58:06;12.40;99.90
5457;DHT22;2751;49.802;9.944;2023-02-18T09:00:33;12.40;99.90
5457;DHT22;2751;49.802;9.944;2023-02-18T09:03:02;12.40;99.90
5457;DHT22;2751;49.802;9.944;2023-02-18T09:05:29;12.40;99.90
5457;DHT22;2751;49.802;9.944;2023-02-18T09:07:56;12.40;99.90
5457;DHT22;2751;49.802;9.944;2023-02-18T09:10:23;12.50;99.90
5457;DHT22;2751;49.802;9.944;2023-02-18T09:12:50;12.50;99.90
5457;DHT22;2751;49.802;9.944;2023-02-18T09:15:17;12.70;99.90
5457;DHT22;2751;49.802;9.944;2023-02-18T09:17:44;12.40;99.90
5457;DHT22;2751;49.802;9.944;2023-02-18T09:20:12;12.70;99.90
5457;DHT22;2751;49.802;9.944;2023-02-18T09:22:39;12.40;99.90
5457;DHT22;2751;49.802;9.944;2023-02-18T09:25:07;12.60;99.90
5457;DHT22;2751;49.802;9.944;2023-02-18T09:27:33;12.70;99.90
5457;DHT22;2751;49.802;9.944;2023-02-18T09:30:01;12.40;99.90
5457;DHT22;2751;49.802;9.944;2023-02-18T09:32:28;12.40;99.90
5457;DHT22;2751;49.802;9.944;2023-02-18T09:34:54;12.70;99.90
5457;DHT22;2751;49.802;9.944;2023-02-18T09:37:23;12.50;99.90
5457;DHT22;2751;49.802;9.944;2023-02-18T09:39:49;12.60;99.90
5457;DHT22;2751;49.802;9.944;2023-02-18T09:42:17;12.60;99.90
5457;DHT22;2751;49.802;9.944;2023-02-18T09:44:49;12.60;99.90
5457;DHT22;2751;49.802;9.944;2023-02-18T09:47:20;12.60;99.90
5457;DHT22;2751;49.802;9.944;2023-02-18T09:49:52;12.60;99.90
5457;DHT22;2751;49.802;9.944;2023-02-18T09:52:23;12.80;99.90
5457;DHT22;2751;49.802;9.944;2023-02-18T09:54:53;13.00;99.90
5457;DHT22;2751;49.802;9.944;2023-02-18T09:57:23;13.00;99.90
5457;DHT22;2751;49.802;9.944;2023-02-18T09:59:57;12.90;99.90
5457;DHT22;2751;49.802;9.944;2023-02-18T10:02:26;12.90;99.90
5457;DHT22;2751;49.802;9.944;2023-02-18T10:04:54;13.10;99.90
5457;DHT22;2751;49.802;9.944;2023-02-18T10:07:27;13.00;99.90
5457;DHT22;2751;49.802;9.944;2023-02-18T10:09:56;13.00;1.00
5457;DHT22;2751;49.802;9.944;2023-02-18T10:12:24;13.10;1.00
5457;DHT22;2751;49.802;9.944;2023-02-18T10:14:53;13.10;99.90
5457;DHT22;2751;49.802;9.944;2023-02-18T10:17:23;13.10;1.00
5457;DHT22;2751;49.802;9.944;2023-02-18T10:19:52;13.00;99.90
5457;DHT22;2751;49.802;9.944;2023-02-18T10:22:21;13.10;99.90
5457;DHT22;2751;49.802;9.944;2023-02-18T10:24:52;13.10;99.90
5457;DHT22;2751;49.802;9.944;2023-02-18T10:27:23;13.10;5.40
5457;DHT22;2751;49.802;9.944;2023-02-18T10:29:51;13.40;46.80
5457;DHT22;2751;49.802;9.944;2023-02-18T10:32:20;13.30;99.90
5457;DHT22;2751;49.802;9.944;2023-02-18T10:34:52;13.40;99.90
5457;DHT22;2751;49.802;9.944;2023-02-18T10:37:40;13.20;99.90
5457;DHT22;2751;49.802;9.944;2023-02-18T10:40:14;13.20;99.90
5457;DHT22;2751;49.802;9.944;2023-02-18T10:42:56;13.10;1.00
5457;DHT22;2751;49.802;9.944;2023-02-18T10:45:39;13.10;1.00
5457;DHT22;2751;49.802;9.944;2023-02-18T10:48:19;13.20;1.00
5457;DHT22;2751;49.802;9.944;2023-02-18T10:50:49;13.00;99.90
5457;DHT22;2751;49.802;9.944;2023-02-18T10:53:22;12.90;99.90
5457;DHT22;2751;49.802;9.944;2023-02-18T10:55:52;12.80;1.00
5457;DHT22;2751;49.802;9.944;2023-02-18T10:58:33;12.90;1.00
5457;DHT22;2751;49.802;9.944;2023-02-18T11:01:03;12.90;1.00
5457;DHT22;2751;49.802;9.944;2023-02-18T11:03:40;12.90;1.00
5457;DHT22;2751;49.802;9.944;2023-02-18T11:06:15;12.90;99.90
5457;DHT22;2751;49.802;9.944;2023-02-18T11:08:44;13.00;99.90
5457;DHT22;2751;49.802;9.944;2023-02-18T11:11:16;12.90;99.90
5457;DHT22;2751;49.802;9.944;2023-02-18T11:13:43;13.20;99.90
5457;DHT22;2751;49.802;9.944;2023-02-18T11:16:11;13.00;99.90
5457;DHT22;2751;49.802;9.944;2023-02-18T11:18:40;13.00;99.90
5457;DHT22;2751;49.802;9.944;2023-02-18T11:21:20;13.30;99.90
5457;DHT22;2751;49.802;9.944;2023-02-18T11:23:52;13.00;99.90
5457;DHT22;2751;49.802;9.944;2023-02-18T11:26:24;13.00;99.90
5457;DHT22;2751;49.802;9.944;2023-02-18T11:28:57;13.00;99.90
5457;DHT22;2751;49.802;9.944;2023-02-18T11:31:35;13.10;99.90
5457;DHT22;2751;49.802;9.944;2023-02-18T11:34:09;13.40;99.90
5457;DHT22;2751;49.802;9.944;2023-02-18T11:36:39;13.20;99.90
5457;DHT22;2751;49.802;9.944;2023-02-18T11:39:16;13.20;71.90
5457;DHT22;2751;49.802;9.944;2023-02-18T11:41:47;13.20;99.90
5457;DHT22;2751;49.802;9.944;2023-02-18T11:44:19;13.40;99.90
5457;DHT22;2751;49.802;9.944;2023-02-18T11:46:59;13.30;99.90
5457;DHT22;2751;49.802;9.944;2023-02-18T11:49:27;13.30;99.90
5457;DHT22;2751;49.802;9.944;2023-02-18T11:52:03;13.10;1.00
5457;DHT22;2751;49.802;9.944;2023-02-18T11:54:31;13.20;99.90
5457;DHT22;2751;49.802;9.944;2023-02-18T11:57:03;13.20;56.70
5457;DHT22;2751;49.802;9.944;2023-02-18T11:59:33;13.20;99.90
5457;DHT22;2751;49.802;9.944;2023-02-18T12:02:05;13.20;99.90
5457;DHT22;2751;49.802;9.944;2023-02-18T12:04:41;13.20;99.90
5457;DHT22;2751;49.802;9.944;2023-02-18T12:07:16;13.10;99.90
5457;DHT22;2751;49.802;9.944;2023-02-18T12:09:48;12.80;82.30
5457;DHT22;2751;49.802;9.944;2023-02-18T12:12:25;13.10;99.90
5457;DHT22;2751;49.802;9.944;2023-02-18T12:14:54;13.00;1.00
5457;DHT22;2751;49.802;9.944;2023-02-18T12:17:43;13.00;1.00
5457;DHT22;2751;49.802;9.944;2023-02-18T12:23:11;12.90;1.00
5457;DHT22;2751;49.802;9.944;2023-02-18T12:25:46;12.90;32.80
5457;DHT22;2751;49.802;9.944;2023-02-18T12:28:33;13.10;93.00
5457;DHT22;2751;49.802;9.944;2023-02-18T12:31:14;13.20;99.90
5457;DHT22;2751;49.802;9.944;2023-02-18T12:33:54;13.20;20.50
5457;DHT22;2751;49.802;9.944;2023-02-18T12:36:31;13.10;99.90
5457;DHT22;2751;49.802;9.944;2023-02-18T12:39:11;12.90;99.90
5457;DHT22;2751;49.802;9.944;2023-02-18T12:42:01;13.20;99.90
5457;DHT22;2751;49.802;9.944;2023-02-18T12:44:36;13.20;99.90
5457;DHT22;2751;49.802;9.944;2023-02-18T12:47:29;13.40;99.90
5457;DHT22;2751;49.802;9.944;2023-02-18T12:53:14;13.70;99.90
5457;DHT22;2751;49.802;9.944;2023-02-18T12:55:56;13.90;1.00
5457;DHT22;2751;49.802;9.944;2023-02-18T12:58:36;13.70;41.60
5457;DHT22;2751;49.802;9.944;2023-02-18T13:01:24;13.90;21.20
5457;DHT22;2751;49.802;9.944;2023-02-18T13:04:14;13.50;1.00
5457;DHT22;2751;49.802;9.944;2023-02-18T13:10:05;13.50;99.90
5457;DHT22;2751;49.802;9.944;2023-02-18T13:12:40;13.70;1.00
5457;DHT22;2751;49.802;9.944;2023-02-18T13:15:16;14.10;35.00
5457;DHT22;2751;49.802;9.944;2023-02-18T13:17:46;13.90;99.90
5457;DHT22;2751;49.802;9.944;2023-02-18T13:20:19;14.20;1.00
5457;DHT22;2751;49.802;9.944;2023-02-18T13:22:47;13.60;99.90
5457;DHT22;2751;49.802;9.944;2023-02-18T13:25:16;13.70;1.00
5457;DHT22;2751;49.802;9.944;2023-02-18T13:27:49;13.50;99.90
5457;DHT22;2751;49.802;9.944;2023-02-18T13:30:24;13.50;99.90
5457;DHT22;2751;49.802;9.944;2023-02-18T13:33:04;13.40;99.90
5457;DHT22;2751;49.802;9.944;2023-02-18T13:35:37;13.30;99.90
5457;DHT22;2751;49.802;9.944;2023-02-18T13:38:21;13.20;99.90
5457;DHT22;2751;49.802;9.944;2023-02-18T13:40:52;13.30;99.90
5457;DHT22;2751;49.802;9.944;2023-02-18T13:43:29;13.40;1.00
5457;DHT22;2751;49.802;9.944;2023-02-18T13:46:07;13.40;1.00
5457;DHT22;2751;49.802;9.944;2023-02-18T13:48:41;13.10;1.00
5457;DHT22;2751;49.802;9.944;2023-02-18T13:51:10;13.00;37.30
5457;DHT22;2751;49.802;9.944;2023-02-18T13:53:39;13.00;1.00
5457;DHT22;2751;49.802;9.944;2023-02-18T13:56:09;13.20;99.90
5457;DHT22;2751;49.802;9.944;2023-02-18T13:58:48;13.00;99.90
5457;DHT22;2751;49.802;9.944;2023-02-18T14:01:36;13.00;1.00
5457;DHT22;2751;49.802;9.944;2023-02-18T14:07:32;13.10;99.90
5457;DHT22;2751;49.802;9.944;2023-02-18T14:10:05;13.10;99.90
5457;DHT22;2751;49.802;9.944;2023-02-18T14:12:37;13.00;1.00
5457;DHT22;2751;49.802;9.944;2023-02-18T14:18:19;12.90;1.00
5457;DHT22;2751;49.802;9.944;2023-02-18T14:20:48;12.80;99.90
5457;DHT22;2751;49.802;9.944;2023-02-18T14:23:43;13.10;99.90
5457;DHT22;2751;49.802;9.944;2023-02-18T14:26:20;12.90;99.90
5457;DHT22;2751;49.802;9.944;2023-02-18T14:28:52;13.00;99.90
5457;DHT22;2751;49.802;9.944;2023-02-18T14:31:41;13.00;1.00
5457;DHT22;2751;49.802;9.944;2023-02-18T14:34:32;13.00;99.90
5457;DHT22;2751;49.802;9.944;2023-02-18T14:37:11;12.90;99.90
5457;DHT22;2751;49.802;9.944;2023-02-18T14:39:50;12.80;1.00
5457;DHT22;2751;49.802;9.944;2023-02-18T14:42:31;13.00;99.90
5457;DHT22;2751;49.802;9.944;2023-02-18T14:45:13;12.90;99.90
5457;DHT22;2751;49.802;9.944;2023-02-18T14:48:08;12.70;1.00
5457;DHT22;2751;49.802;9.944;2023-02-18T14:50:41;12.70;99.90
5457;DHT22;2751;49.802;9.944;2023-02-18T14:53:12;12.80;99.90
5457;DHT22;2751;49.802;9.944;2023-02-18T14:55:46;12.60;99.90
5457;DHT22;2751;49.802;9.944;2023-02-18T14:58:24;12.90;99.90
5457;DHT22;2751;49.802;9.944;2023-02-18T15:00:53;12.70;99.90
5457;DHT22;2751;49.802;9.944;2023-02-18T15:03:20;12.60;99.90
5457;DHT22;2751;49.802;9.944;2023-02-18T15:05:49;12.60;1.00
5457;DHT22;2751;49.802;9.944;2023-02-18T15:08:18;12.60;99.90
5457;DHT22;2751;49.802;9.944;2023-02-18T15:10:48;12.50;99.90
5457;DHT22;2751;49.802;9.944;2023-02-18T15:13:19;12.60;99.90
5457;DHT22;2751;49.802;9.944;2023-02-18T15:15:50;12.40;1.00
5457;DHT22;2751;49.802;9.944;2023-02-18T15:18:22;12.40;99.90
5457;DHT22;2751;49.802;9.944;2023-02-18T15:20:51;12.30;99.90
5457;DHT22;2751;49.802;9.944;2023-02-18T15:23:18;12.20;99.90
5457;DHT22;2751;49.802;9.944;2023-02-18T15:25:49;12.20;99.90
5457;DHT22;2751;49.802;9.944;2023-02-18T15:28:21;12.20;59.50
5457;DHT22;2751;49.802;9.944;2023-02-18T15:30:48;12.20;1.00
5457;DHT22;2751;49.802;9.944;2023-02-18T15:33:17;12.50;99.90
5457;DHT22;2751;49.802;9.944;2023-02-18T15:35:44;12.20;1.00
5457;DHT22;2751;49.802;9.944;2023-02-18T15:38:14;12.20;78.20
5457;DHT22;2751;49.802;9.944;2023-02-18T15:40:43;12.00;99.90
5457;DHT22;2751;49.802;9.944;2023-02-18T15:43:16;12.00;99.90
5457;DHT22;2751;49.802;9.944;2023-02-18T15:45:46;11.90;99.90
5457;DHT22;2751;49.802;9.944;2023-02-18T15:48:23;11.80;1.00
5457;DHT22;2751;49.802;9.944;2023-02-18T15:50:54;11.80;99.90
5457;DHT22;2751;49.802;9.944;2023-02-18T15:53:22;11.80;99.90
5457;DHT22;2751;49.802;9.944;2023-02-18T15:55:52;11.80;99.90
5457;DHT22;2751;49.802;9.944;2023-02-18T15:58:26;11.70;99.90
5457;DHT22;2751;49.802;9.944;2023-02-18T16:00:55;11.70;99.90
5457;DHT22;2751;49.802;9.944;2023-02-18T16:03:24;11.70;99.90
5457;DHT22;2751;49.802;9.944;2023-02-18T16:06:08;11.60;99.90
5457;DHT22;2751;49.802;9.944;2023-02-18T16:08:35;11.50;99.90
5457;DHT22;2751;49.802;9.944;2023-02-18T16:11:05;11.50;99.90
5457;DHT22;2751;49.802;9.944;2023-02-18T16:13:36;11.40;1.00
5457;DHT22;2751;49.802;9.944;2023-02-18T16:16:21;11.40;99.90
5457;DHT22;2751;49.802;9.944;2023-02-18T16:18:49;11.40;99.90
5457;DHT22;2751;49.802;9.944;2023-02-18T16:21:27;11.40;99.90
5457;DHT22;2751;49.802;9.944;2023-02-18T16:23:56;11.30;1.00
5457;DHT22;2751;49.802;9.944;2023-02-18T16:26:28;11.30;99.90
5457;DHT22;2751;49.802;9.944;2023-02-18T16:29:03;11.30;99.90
5457;DHT22;2751;49.802;9.944;2023-02-18T16:31:31;11.30;99.90
5457;DHT22;2751;49.802;9.944;2023-02-18T16:33:57;11.30;99.90
5457;DHT22;2751;49.802;9.944;2023-02-18T16:36:24;11.20;99.90
5457;DHT22;2751;49.802;9.944;2023-02-18T16:38:51;11.30;99.90
5457;DHT22;2751;49.802;9.944;2023-02-18T16:41:18;11.20;1.00
5457;DHT22;2751;49.802;9.944;2023-02-18T16:43:45;11.20;1.00
5457;DHT22;2751;49.802;9.944;2023-02-18T16:46:16;11.20;99.90
5457;DHT22;2751;49.802;9.944;2023-02-18T16:48:45;11.20;99.90